sensor_id;sensor_type;location;lat;lon;timestamp;pressure;altitude;pressure_sealevel;temperature;humidity
19761;BME280;10039;42.632;23.408;2023-05-01T00:01:19;94966.72;;;12.28;69.59
19761;BME280;10039;42.632;23.408;2023-05-01T00:03:45;94952.03;;;12.05;70.12
19761;BME280;10039;42.632;23.408;2023-05-01T00:06:11;94973.84;;;12.19;70.20
19761;BME280;10039;42.632;23.408;2023-05-01T00:08:37;94971.66;;;12.14;70.05
19761;BME280;10039;42.632;23.408;2023-05-01T00:11:03;94979.19;;;12.19;70.17
19761;BME280;10039;42.632;23.408;2023-05-01T00:13:29;94982.94;;;12.22;69.54
19761;BME280;10039;42.632;23.408;2023-05-01T00:15:55;94969.16;;;12.07;70.01
19761;BME280;10039;42.632;23.408;2023-05-01T00:18:21;94955.97;;;12.00;69.40
19761;BME280;10039;42.632;23.408;2023-05-01T00:20:47;94964.75;;;11.85;70.52
19761;BME280;10039;42.632;23.408;2023-05-01T00:23:13;94965.50;;;11.69;70.40
19761;BME280;10039;42.632;23.408;2023-05-01T00:25:38;94966.66;;;11.68;70.97
19761;BME280;10039;42.632;23.408;2023-05-01T00:28:04;94964.66;;;11.72;70.85
19761;BME280;10039;42.632;23.408;2023-05-01T00:30:33;94962.00;;;11.56;70.45
19761;BME280;10039;42.632;23.408;2023-05-01T00:32:59;94959.31;;;11.56;70.63
19761;BME280;10039;42.632;23.408;2023-05-01T00:35:26;94936.03;;;11.37;71.07
19761;BME280;10039;42.632;23.408;2023-05-01T00:37:52;94943.72;;;11.35;71.58
19761;BME280;10039;42.632;23.408;2023-05-01T00:40:18;94996.94;;;11.46;72.11
19761;BME280;10039;42.632;23.408;2023-05-01T00:42:44;94973.63;;;11.30;72.02
19761;BME280;10039;42.632;23.408;2023-05-01T00:45:10;94993.63;;;11.58;71.44
19761;BME280;10039;42.632;23.408;2023-05-01T00:47:36;94976.31;;;11.46;71.43
19761;BME280;10039;42.632;23.408;2023-05-01T00:50:03;94972.84;;;11.30;71.58
19761;BME280;10039;42.632;23.408;2023-05-01T00:52:29;94979.28;;;11.32;71.27
19761;BME280;10039;42.632;23.408;2023-05-01T00:54:56;94971.19;;;11.36;71.35
19761;BME280;10039;42.632;23.408;2023-05-01T00:57:22;94967.03;;;11.35;70.98
19761;BME280;10039;42.632;23.408;2023-05-01T00:59:48;94993.16;;;11.43;71.60
19761;BME280;10039;42.632;23.408;2023-05-01T01:02:14;95007.44;;;11.56;70.61
19761;BME280;10039;42.632;23.408;2023-05-01T01:04:41;94990.16;;;11.41;70.95
19761;BME280;10039;42.632;23.408;2023-05-01T01:07:15;95008.13;;;11.41;71.21
19761;BME280;10039;42.632;23.408;2023-05-01T01:15:13;94986.84;;;11.18;70.80
19761;BME280;10039;42.632;23.408;2023-05-01T01:18:01;95001.06;;;10.96;72.61
19761;BME280;10039;42.632;23.408;2023-05-01T01:21:04;95007.47;;;10.98;72.16
19761;BME280;10039;42.632;23.408;2023-05-01T01:24:25;95014.75;;;10.98;72.25
19761;BME280;10039;42.632;23.408;2023-05-01T01:27:00;95021.03;;;11.07;72.04
19761;BME280;10039;42.632;23.408;2023-05-01T01:35:19;95016.78;;;11.10;71.47
19761;BME280;10039;42.632;23.408;2023-05-01T01:38:16;95019.09;;;11.08;71.44
19761;BME280;10039;42.632;23.408;2023-05-01T01:40:54;95005.59;;;10.99;71.91
19761;BME280;10039;42.632;23.408;2023-05-01T01:43:22;95020.91;;;10.95;72.66
19761;BME280;10039;42.632;23.408;2023-05-01T01:45:59;95022.06;;;10.94;72.44
19761;BME280;10039;42.632;23.408;2023-05-01T01:48:30;95021.16;;;10.81;73.29
19761;BME280;10039;42.632;23.408;2023-05-01T01:50:58;95021.72;;;10.92;72.66
19761;BME280;10039;42.632;23.408;2023-05-01T01:53:27;94992.72;;;10.74;72.38
19761;BME280;10039;42.632;23.408;2023-05-01T01:55:55;94995.44;;;10.71;72.56
19761;BME280;10039;42.632;23.408;2023-05-01T01:58:24;95002.91;;;10.79;72.29
19761;BME280;10039;42.632;23.408;2023-05-01T02:00:52;94991.00;;;10.84;72.54
19761;BME280;10039;42.632;23.408;2023-05-01T02:03:20;94982.09;;;10.51;73.02
19761;BME280;10039;42.632;23.408;2023-05-01T02:05:49;95025.81;;;10.77;72.87
19761;BME280;10039;42.632;23.408;2023-05-01T02:08:16;94986.66;;;10.51;72.96
19761;BME280;10039;42.632;23.408;2023-05-01T02:10:43;95012.81;;;10.59;73.66
19761;BME280;10039;42.632;23.408;2023-05-01T02:13:11;95014.13;;;10.51;74.10
19761;BME280;10039;42.632;23.408;2023-05-01T02:15:39;94991.56;;;10.33;73.67
19761;BME280;10039;42.632;23.408;2023-05-01T02:18:05;94999.88;;;10.58;73.22
19761;BME280;10039;42.632;23.408;2023-05-01T02:20:32;94991.09;;;10.57;73.04
19761;BME280;10039;42.632;23.408;2023-05-01T02:22:58;94988.56;;;10.70;72.16
19761;BME280;10039;42.632;23.408;2023-05-01T02:25:26;95000.44;;;10.88;71.73
19761;BME280;10039;42.632;23.408;2023-05-01T02:27:55;94995.63;;;10.80;71.87
19761;BME280;10039;42.632;23.408;2023-05-01T02:30:22;95015.69;;;10.88;71.81
19761;BME280;10039;42.632;23.408;2023-05-01T02:32:48;95005.84;;;10.85;71.33
19761;BME280;10039;42.632;23.408;2023-05-01T02:35:14;94982.72;;;10.59;72.01
19761;BME280;10039;42.632;23.408;2023-05-01T02:37:42;94979.13;;;10.46;72.76
19761;BME280;10039;42.632;23.408;2023-05-01T02:40:10;94982.84;;;10.52;71.90
19761;BME280;10039;42.632;23.408;2023-05-01T02:42:37;94985.97;;;10.47;72.98
19761;BME280;10039;42.632;23.408;2023-05-01T02:45:06;95001.72;;;10.61;72.77
19761;BME280;10039;42.632;23.408;2023-05-01T02:47:37;94996.41;;;10.38;73.01
19761;BME280;10039;42.632;23.408;2023-05-01T02:50:04;95008.66;;;10.35;72.96
19761;BME280;10039;42.632;23.408;2023-05-01T02:52:49;94998.13;;;10.28;73.64
19761;BME280;10039;42.632;23.408;2023-05-01T02:55:16;94999.00;;;10.22;74.01
19761;BME280;10039;42.632;23.408;2023-05-01T02:57:42;95010.47;;;10.19;74.08
19761;BME280;10039;42.632;23.408;2023-05-01T03:00:08;95023.63;;;10.29;73.54
19761;BME280;10039;42.632;23.408;2023-05-01T03:02:34;95007.81;;;10.19;73.37
19761;BME280;10039;42.632;23.408;2023-05-01T03:05:00;95007.63;;;10.29;72.96
19761;BME280;10039;42.632;23.408;2023-05-01T03:07:26;94984.44;;;10.03;73.07
19761;BME280;10039;42.632;23.408;2023-05-01T03:10:03;95005.59;;;10.14;73.04
19761;BME280;10039;42.632;23.408;2023-05-01T03:12:29;95012.56;;;10.08;73.29
19761;BME280;10039;42.632;23.408;2023-05-01T03:14:56;95013.72;;;10.07;73.52
19761;BME280;10039;42.632;23.408;2023-05-01T03:17:22;95015.56;;;10.10;73.38
19761;BME280;10039;42.632;23.408;2023-05-01T03:19:47;95039.81;;;10.19;73.22
19761;BME280;10039;42.632;23.408;2023-05-01T03:22:14;95010.38;;;10.03;73.68
19761;BME280;10039;42.632;23.408;2023-05-01T03:24:40;95030.66;;;10.20;73.41
19761;BME280;10039;42.632;23.408;2023-05-01T03:27:06;95020.19;;;10.06;72.62
19761;BME280;10039;42.632;23.408;2023-05-01T03:29:32;95034.22;;;10.10;72.95
19761;BME280;10039;42.632;23.408;2023-05-01T03:31:58;95055.09;;;10.15;73.03
19761;BME280;10039;42.632;23.408;2023-05-01T03:34:24;95053.78;;;10.03;73.24
19761;BME280;10039;42.632;23.408;2023-05-01T03:36:52;95044.78;;;10.17;73.24
19761;BME280;10039;42.632;23.408;2023-05-01T03:39:18;95044.25;;;10.25;72.71
19761;BME280;10039;42.632;23.408;2023-05-01T03:41:44;95052.03;;;10.39;72.48
19761;BME280;10039;42.632;23.408;2023-05-01T03:44:10;95047.63;;;10.29;72.12
19761;BME280;10039;42.632;23.408;2023-05-01T03:46:36;95053.38;;;10.28;72.49
19761;BME280;10039;42.632;23.408;2023-05-01T03:49:02;95052.69;;;10.24;72.37
19761;BME280;10039;42.632;23.408;2023-05-01T03:51:28;95070.75;;;10.36;72.60
19761;BME280;10039;42.632;23.408;2023-05-01T03:53:53;95041.38;;;10.16;72.84
19761;BME280;10039;42.632;23.408;2023-05-01T03:56:25;95040.97;;;10.18;72.80
19761;BME280;10039;42.632;23.408;2023-05-01T03:58:51;95063.19;;;10.34;73.16
19761;BME280;10039;42.632;23.408;2023-05-01T04:01:18;95066.25;;;10.33;73.28
19761;BME280;10039;42.632;23.408;2023-05-01T04:03:45;95035.47;;;10.05;73.26
19761;BME280;10039;42.632;23.408;2023-05-01T04:06:11;95039.91;;;10.12;73.44
19761;BME280;10039;42.632;23.408;2023-05-01T04:08:37;95056.72;;;10.09;74.42
19761;BME280;10039;42.632;23.408;2023-05-01T04:11:03;95051.97;;;10.20;73.93
19761;BME280;10039;42.632;23.408;2023-05-01T04:13:28;95070.91;;;10.29;74.07
19761;BME280;10039;42.632;23.408;2023-05-01T04:15:54;95072.97;;;10.41;73.81
19761;BME280;10039;42.632;23.408;2023-05-01T04:18:22;95063.97;;;10.31;74.45
19761;BME280;10039;42.632;23.408;2023-05-01T04:20:48;95051.41;;;10.32;74.30
19761;BME280;10039;42.632;23.408;2023-05-01T04:23:13;95058.66;;;10.31;75.23
19761;BME280;10039;42.632;23.408;2023-05-01T04:25:39;95043.41;;;10.32;74.88
19761;BME280;10039;42.632;23.408;2023-05-01T04:28:05;95062.41;;;10.57;74.00
19761;BME280;10039;42.632;23.408;2023-05-01T04:30:31;95048.03;;;10.51;73.83
19761;BME280;10039;42.632;23.408;2023-05-01T04:32:56;95037.81;;;10.46;73.93
19761;BME280;10039;42.632;23.408;2023-05-01T04:35:25;95072.81;;;10.71;73.34
19761;BME280;10039;42.632;23.408;2023-05-01T04:37:51;95043.97;;;10.66;73.61
19761;BME280;10039;42.632;23.408;2023-05-01T04:40:17;95065.06;;;10.99;73.06
19761;BME280;10039;42.632;23.408;2023-05-01T04:42:42;95054.16;;;11.10;72.09
19761;BME280;10039;42.632;23.408;2023-05-01T04:45:09;95077.00;;;11.14;72.03
19761;BME280;10039;42.632;23.408;2023-05-01T04:47:35;95051.25;;;11.04;71.52
19761;BME280;10039;42.632;23.408;2023-05-01T04:50:01;95069.13;;;11.26;71.27
19761;BME280;10039;42.632;23.408;2023-05-01T04:52:27;95077.16;;;11.42;70.93
19761;BME280;10039;42.632;23.408;2023-05-01T04:54:53;95061.50;;;11.25;70.66
19761;BME280;10039;42.632;23.408;2023-05-01T04:57:19;95067.66;;;11.41;71.08
19761;BME280;10039;42.632;23.408;2023-05-01T04:59:47;95079.69;;;11.49;70.29
19761;BME280;10039;42.632;23.408;2023-05-01T05:02:13;95079.59;;;11.56;70.51
19761;BME280;10039;42.632;23.408;2023-05-01T05:04:39;95085.41;;;11.87;69.97
19761;BME280;10039;42.632;23.408;2023-05-01T05:07:05;95070.97;;;12.00;69.07
19761;BME280;10039;42.632;23.408;2023-05-01T05:09:31;95051.56;;;11.96;68.39
19761;BME280;10039;42.632;23.408;2023-05-01T05:11:56;95061.31;;;12.22;67.87
19761;BME280;10039;42.632;23.408;2023-05-01T05:14:22;95094.97;;;12.51;67.26
19761;BME280;10039;42.632;23.408;2023-05-01T05:16:48;95096.13;;;12.82;67.13
19761;BME280;10039;42.632;23.408;2023-05-01T05:19:14;95089.50;;;12.87;66.28
19761;BME280;10039;42.632;23.408;2023-05-01T05:21:40;95062.09;;;12.67;65.95
19761;BME280;10039;42.632;23.408;2023-05-01T05:24:05;95108.06;;;13.10;66.41
19761;BME280;10039;42.632;23.408;2023-05-01T05:26:31;95080.88;;;13.24;65.74
19761;BME280;10039;42.632;23.408;2023-05-01T05:28:57;95108.09;;;13.50;65.78
19761;BME280;10039;42.632;23.408;2023-05-01T05:31:23;95092.34;;;13.52;64.54
19761;BME280;10039;42.632;23.408;2023-05-01T05:33:49;95117.47;;;13.71;64.28
19761;BME280;10039;42.632;23.408;2023-05-01T05:36:15;95083.75;;;13.57;64.50
19761;BME280;10039;42.632;23.408;2023-05-01T05:38:41;95087.56;;;13.85;63.44
19761;BME280;10039;42.632;23.408;2023-05-01T05:41:06;95089.38;;;14.13;62.91
19761;BME280;10039;42.632;23.408;2023-05-01T05:43:32;95100.91;;;14.38;62.67
19761;BME280;10039;42.632;23.408;2023-05-01T05:45:58;95123.41;;;14.78;61.64
19761;BME280;10039;42.632;23.408;2023-05-01T05:48:25;95101.91;;;14.78;61.85
19761;BME280;10039;42.632;23.408;2023-05-01T05:50:51;95099.22;;;14.78;61.05
19761;BME280;10039;42.632;23.408;2023-05-01T05:53:19;95083.72;;;14.82;60.31
19761;BME280;10039;42.632;23.408;2023-05-01T05:55:46;95125.78;;;15.10;61.00
19761;BME280;10039;42.632;23.408;2023-05-01T05:58:12;95105.94;;;14.95;61.51
19761;BME280;10039;42.632;23.408;2023-05-01T06:00:39;95115.41;;;14.87;61.76
19761;BME280;10039;42.632;23.408;2023-05-01T06:03:06;95103.84;;;14.77;62.55
19761;BME280;10039;42.632;23.408;2023-05-01T06:05:31;95116.25;;;14.96;62.06
19761;BME280;10039;42.632;23.408;2023-05-01T06:07:58;95130.53;;;15.40;60.91
19761;BME280;10039;42.632;23.408;2023-05-01T06:10:24;95121.88;;;15.23;60.57
19761;BME280;10039;42.632;23.408;2023-05-01T06:12:49;95089.91;;;15.25;60.50
19761;BME280;10039;42.632;23.408;2023-05-01T06:15:15;95130.41;;;15.65;60.39
19761;BME280;10039;42.632;23.408;2023-05-01T06:17:41;95131.09;;;15.77;60.92
19761;BME280;10039;42.632;23.408;2023-05-01T06:20:07;95132.75;;;16.05;60.37
19761;BME280;10039;42.632;23.408;2023-05-01T06:22:33;95120.81;;;16.06;60.09
19761;BME280;10039;42.632;23.408;2023-05-01T06:24:58;95126.25;;;16.24;59.78
19761;BME280;10039;42.632;23.408;2023-05-01T06:27:24;95137.50;;;16.62;59.06
19761;BME280;10039;42.632;23.408;2023-05-01T06:29:50;95124.06;;;16.32;59.03
19761;BME280;10039;42.632;23.408;2023-05-01T06:32:15;95122.38;;;16.56;59.14
19761;BME280;10039;42.632;23.408;2023-05-01T06:34:41;95092.28;;;16.57;58.26
19761;BME280;10039;42.632;23.408;2023-05-01T06:37:06;95129.38;;;17.10;58.17
19761;BME280;10039;42.632;23.408;2023-05-01T06:39:32;95132.81;;;17.29;57.52
19761;BME280;10039;42.632;23.408;2023-05-01T06:41:58;95128.66;;;17.37;56.72
19761;BME280;10039;42.632;23.408;2023-05-01T06:44:23;95140.34;;;17.52;56.67
19761;BME280;10039;42.632;23.408;2023-05-01T06:46:48;95136.75;;;17.55;56.63
19761;BME280;10039;42.632;23.408;2023-05-01T06:49:14;95130.16;;;17.65;56.26
19761;BME280;10039;42.632;23.408;2023-05-01T06:51:39;95097.47;;;17.54;56.05
19761;BME280;10039;42.632;23.408;2023-05-01T06:54:05;95135.94;;;17.99;55.61
19761;BME280;10039;42.632;23.408;2023-05-01T06:56:30;95133.16;;;18.17;55.69
19761;BME280;10039;42.632;23.408;2023-05-01T06:58:56;95105.88;;;18.24;54.76
19761;BME280;10039;42.632;23.408;2023-05-01T07:01:22;95125.50;;;18.33;53.95
19761;BME280;10039;42.632;23.408;2023-05-01T07:03:47;95131.00;;;18.48;53.89
19761;BME280;10039;42.632;23.408;2023-05-01T07:06:12;95131.56;;;18.52;53.80
19761;BME280;10039;42.632;23.408;2023-05-01T07:08:40;95121.06;;;18.54;53.47
19761;BME280;10039;42.632;23.408;2023-05-01T07:11:08;95136.06;;;18.87;53.17
19761;BME280;10039;42.632;23.408;2023-05-01T07:13:33;95134.13;;;19.11;52.52
19761;BME280;10039;42.632;23.408;2023-05-01T07:16:02;95134.66;;;19.24;52.27
19761;BME280;10039;42.632;23.408;2023-05-01T07:18:27;95112.00;;;18.89;51.95
19761;BME280;10039;42.632;23.408;2023-05-01T07:20:53;95131.41;;;19.11;51.66
19761;BME280;10039;42.632;23.408;2023-05-01T07:23:18;95124.69;;;19.07;51.97
19761;BME280;10039;42.632;23.408;2023-05-01T07:25:44;95129.97;;;19.01;51.57
19761;BME280;10039;42.632;23.408;2023-05-01T07:28:10;95131.88;;;19.10;52.07
19761;BME280;10039;42.632;23.408;2023-05-01T07:30:35;95138.41;;;19.26;50.90
19761;BME280;10039;42.632;23.408;2023-05-01T07:33:02;95132.09;;;19.44;51.33
19761;BME280;10039;42.632;23.408;2023-05-01T07:35:27;95121.84;;;19.48;51.42
19761;BME280;10039;42.632;23.408;2023-05-01T07:37:53;95152.78;;;19.56;50.56
19761;BME280;10039;42.632;23.408;2023-05-01T07:40:19;95127.28;;;19.62;51.85
19761;BME280;10039;42.632;23.408;2023-05-01T07:42:45;95142.38;;;20.07;50.67
19761;BME280;10039;42.632;23.408;2023-05-01T07:45:10;95148.16;;;20.29;48.32
19761;BME280;10039;42.632;23.408;2023-05-01T07:47:35;95136.34;;;20.60;48.62
19761;BME280;10039;42.632;23.408;2023-05-01T07:50:09;95123.50;;;20.27;49.06
19761;BME280;10039;42.632;23.408;2023-05-01T07:52:35;95139.81;;;20.61;48.73
19761;BME280;10039;42.632;23.408;2023-05-01T07:55:02;95122.75;;;20.40;50.11
19761;BME280;10039;42.632;23.408;2023-05-01T07:57:27;95130.34;;;20.85;48.43
19761;BME280;10039;42.632;23.408;2023-05-01T07:59:54;95126.16;;;21.04;48.37
19761;BME280;10039;42.632;23.408;2023-05-01T08:02:20;95130.09;;;21.23;49.53
19761;BME280;10039;42.632;23.408;2023-05-01T08:04:46;95128.97;;;21.55;47.67
19761;BME280;10039;42.632;23.408;2023-05-01T08:07:12;95138.47;;;21.85;46.95
19761;BME280;10039;42.632;23.408;2023-05-01T08:09:38;95110.56;;;21.84;46.19
19761;BME280;10039;42.632;23.408;2023-05-01T08:12:03;95100.41;;;21.85;46.48
19761;BME280;10039;42.632;23.408;2023-05-01T08:14:29;95140.91;;;21.83;46.96
19761;BME280;10039;42.632;23.408;2023-05-01T08:16:55;95108.81;;;22.07;46.02
19761;BME280;10039;42.632;23.408;2023-05-01T08:19:20;95130.81;;;22.09;46.04
19761;BME280;10039;42.632;23.408;2023-05-01T08:21:46;95109.28;;;21.80;46.85
19761;BME280;10039;42.632;23.408;2023-05-01T08:24:11;95107.63;;;21.23;44.76
19761;BME280;10039;42.632;23.408;2023-05-01T08:26:37;95141.00;;;21.68;46.50
19761;BME280;10039;42.632;23.408;2023-05-01T08:29:02;95126.03;;;21.98;46.14
19761;BME280;10039;42.632;23.408;2023-05-01T08:31:28;95139.06;;;22.20;45.71
19761;BME280;10039;42.632;23.408;2023-05-01T08:33:53;95097.56;;;22.50;45.05
19761;BME280;10039;42.632;23.408;2023-05-01T08:36:19;95123.44;;;23.13;43.42
19761;BME280;10039;42.632;23.408;2023-05-01T08:38:45;95121.44;;;22.71;41.88
19761;BME280;10039;42.632;23.408;2023-05-01T08:41:19;95117.66;;;23.00;42.95
19761;BME280;10039;42.632;23.408;2023-05-01T08:43:45;95105.84;;;23.08;40.54
19761;BME280;10039;42.632;23.408;2023-05-01T08:46:14;95113.75;;;23.06;41.62
19761;BME280;10039;42.632;23.408;2023-05-01T08:48:46;95120.88;;;23.04;41.14
19761;BME280;10039;42.632;23.408;2023-05-01T08:51:14;95105.94;;;22.83;41.02
19761;BME280;10039;42.632;23.408;2023-05-01T08:53:42;95114.13;;;22.88;40.86
19761;BME280;10039;42.632;23.408;2023-05-01T08:56:10;95090.47;;;22.33;40.47
19761;BME280;10039;42.632;23.408;2023-05-01T08:58:38;95073.31;;;22.52;41.44
19761;BME280;10039;42.632;23.408;2023-05-01T09:01:04;95118.63;;;22.97;41.84
19761;BME280;10039;42.632;23.408;2023-05-01T09:03:31;95102.31;;;22.61;42.93
19761;BME280;10039;42.632;23.408;2023-05-01T09:05:58;95089.22;;;23.06;40.72
19761;BME280;10039;42.632;23.408;2023-05-01T09:08:24;95095.81;;;22.89;41.69
19761;BME280;10039;42.632;23.408;2023-05-01T09:10:51;95081.91;;;22.14;41.32
19761;BME280;10039;42.632;23.408;2023-05-01T09:13:17;95097.88;;;22.32;43.29
19761;BME280;10039;42.632;23.408;2023-05-01T09:15:43;95097.97;;;22.79;41.37
19761;BME280;10039;42.632;23.408;2023-05-01T09:18:10;95092.00;;;23.17;42.57
19761;BME280;10039;42.632;23.408;2023-05-01T09:20:36;95104.97;;;23.33;42.37
19761;BME280;10039;42.632;23.408;2023-05-01T09:23:02;95104.31;;;23.60;43.08
19761;BME280;10039;42.632;23.408;2023-05-01T09:25:28;95098.50;;;23.25;40.35
19761;BME280;10039;42.632;23.408;2023-05-01T09:27:53;95090.72;;;22.66;41.26
19761;BME280;10039;42.632;23.408;2023-05-01T09:30:32;95096.28;;;22.82;43.17
19761;BME280;10039;42.632;23.408;2023-05-01T09:35:47;95085.25;;;22.29;42.30
19761;BME280;10039;42.632;23.408;2023-05-01T09:38:16;95066.41;;;21.95;42.11
19761;BME280;10039;42.632;23.408;2023-05-01T09:40:42;95092.91;;;22.00;42.84
19761;BME280;10039;42.632;23.408;2023-05-01T09:43:08;95098.09;;;22.29;43.60
19761;BME280;10039;42.632;23.408;2023-05-01T09:45:33;95095.09;;;22.52;42.89
19761;BME280;10039;42.632;23.408;2023-05-01T09:48:09;95099.50;;;22.50;42.70
19761;BME280;10039;42.632;23.408;2023-05-01T09:50:35;95107.22;;;22.00;42.97
19761;BME280;10039;42.632;23.408;2023-05-01T09:53:02;95095.50;;;22.14;41.39
19761;BME280;10039;42.632;23.408;2023-05-01T09:55:29;95099.44;;;22.13;42.40
19761;BME280;10039;42.632;23.408;2023-05-01T09:57:55;95084.44;;;21.67;41.44
19761;BME280;10039;42.632;23.408;2023-05-01T10:00:20;95087.28;;;21.78;42.13
19761;BME280;10039;42.632;23.408;2023-05-01T10:02:47;95097.19;;;21.81;43.31
19761;BME280;10039;42.632;23.408;2023-05-01T10:05:13;95086.22;;;21.95;41.11
19761;BME280;10039;42.632;23.408;2023-05-01T10:07:59;95092.44;;;21.76;42.06
19761;BME280;10039;42.632;23.408;2023-05-01T10:10:25;95095.63;;;22.00;42.50
19761;BME280;10039;42.632;23.408;2023-05-01T10:12:51;95084.97;;;21.71;40.22
19761;BME280;10039;42.632;23.408;2023-05-01T10:15:17;95090.53;;;21.82;41.68
19761;BME280;10039;42.632;23.408;2023-05-01T10:17:44;95075.81;;;21.48;41.90
19761;BME280;10039;42.632;23.408;2023-05-01T10:20:11;95081.56;;;21.76;41.41
19761;BME280;10039;42.632;23.408;2023-05-01T10:22:39;95072.84;;;21.66;40.69
19761;BME280;10039;42.632;23.408;2023-05-01T10:25:09;95083.22;;;21.68;40.79
19761;BME280;10039;42.632;23.408;2023-05-01T10:27:37;95084.44;;;21.67;40.02
19761;BME280;10039;42.632;23.408;2023-05-01T10:30:03;95082.25;;;21.96;41.86
19761;BME280;10039;42.632;23.408;2023-05-01T10:32:30;95079.34;;;22.05;39.55
19761;BME280;10039;42.632;23.408;2023-05-01T10:35:00;95079.97;;;21.89;40.11
19761;BME280;10039;42.632;23.408;2023-05-01T10:37:38;95079.50;;;21.65;40.26
19761;BME280;10039;42.632;23.408;2023-05-01T10:45:54;95078.13;;;21.36;42.47
19761;BME280;10039;42.632;23.408;2023-05-01T10:51:20;95085.28;;;21.33;42.15
19761;BME280;10039;42.632;23.408;2023-05-01T10:53:48;95076.69;;;20.95;43.39
19761;BME280;10039;42.632;23.408;2023-05-01T10:59:01;95072.25;;;21.37;43.66
19761;BME280;10039;42.632;23.408;2023-05-01T11:01:44;95081.75;;;21.47;41.44
19761;BME280;10039;42.632;23.408;2023-05-01T11:12:03;95078.41;;;21.83;42.53
19761;BME280;10039;42.632;23.408;2023-05-01T11:20:06;95079.06;;;21.52;41.95
19761;BME280;10039;42.632;23.408;2023-05-01T11:22:33;95074.69;;;21.35;43.14
19761;BME280;10039;42.632;23.408;2023-05-01T11:25:03;95085.78;;;21.57;43.22
19761;BME280;10039;42.632;23.408;2023-05-01T11:27:32;95082.25;;;21.51;43.04
19761;BME280;10039;42.632;23.408;2023-05-01T11:29:58;95091.84;;;21.47;42.38
19761;BME280;10039;42.632;23.408;2023-05-01T11:32:26;95091.38;;;21.48;42.58
19761;BME280;10039;42.632;23.408;2023-05-01T11:34:52;95087.78;;;21.37;42.58
19761;BME280;10039;42.632;23.408;2023-05-01T11:37:19;95087.13;;;21.02;40.91
19761;BME280;10039;42.632;23.408;2023-05-01T11:39:51;95093.19;;;21.11;43.54
19761;BME280;10039;42.632;23.408;2023-05-01T11:42:20;95092.09;;;21.03;41.19
19761;BME280;10039;42.632;23.408;2023-05-01T11:45:08;95085.63;;;20.81;42.63
19761;BME280;10039;42.632;23.408;2023-05-01T11:47:37;95095.19;;;20.96;41.62
19761;BME280;10039;42.632;23.408;2023-05-01T11:50:08;95068.72;;;20.91;41.91
19761;BME280;10039;42.632;23.408;2023-05-01T11:52:46;95098.31;;;21.29;41.30
19761;BME280;10039;42.632;23.408;2023-05-01T11:55:20;95089.34;;;21.43;41.67
19761;BME280;10039;42.632;23.408;2023-05-01T11:57:54;95078.94;;;21.42;41.06
19761;BME280;10039;42.632;23.408;2023-05-01T12:00:41;95082.16;;;21.60;40.26
19761;BME280;10039;42.632;23.408;2023-05-01T12:03:12;95093.03;;;21.40;41.03
19761;BME280;10039;42.632;23.408;2023-05-01T12:05:39;95094.31;;;21.25;40.20
19761;BME280;10039;42.632;23.408;2023-05-01T12:08:17;95103.19;;;21.25;41.39
19761;BME280;10039;42.632;23.408;2023-05-01T12:10:45;95095.94;;;21.17;39.75
19761;BME280;10039;42.632;23.408;2023-05-01T12:13:12;95102.66;;;21.21;41.63
19761;BME280;10039;42.632;23.408;2023-05-01T12:15:48;95110.47;;;21.34;41.26
19761;BME280;10039;42.632;23.408;2023-05-01T12:18:15;95102.81;;;21.32;40.51
19761;BME280;10039;42.632;23.408;2023-05-01T12:23:08;95093.44;;;20.93;38.79
19761;BME280;10039;42.632;23.408;2023-05-01T12:25:36;95105.38;;;21.01;40.57
19761;BME280;10039;42.632;23.408;2023-05-01T12:28:07;95096.91;;;20.94;41.43
19761;BME280;10039;42.632;23.408;2023-05-01T12:30:34;95088.16;;;20.84;41.53
19761;BME280;10039;42.632;23.408;2023-05-01T12:33:09;95111.97;;;20.95;41.87
19761;BME280;10039;42.632;23.408;2023-05-01T12:35:36;95094.31;;;21.05;40.97
19761;BME280;10039;42.632;23.408;2023-05-01T12:38:13;95102.44;;;21.05;37.96
19761;BME280;10039;42.632;23.408;2023-05-01T12:40:48;95097.56;;;20.89;37.90
19761;BME280;10039;42.632;23.408;2023-05-01T12:43:14;95105.22;;;20.90;38.64
19761;BME280;10039;42.632;23.408;2023-05-01T12:45:40;95102.25;;;20.74;38.73
19761;BME280;10039;42.632;23.408;2023-05-01T12:48:11;95101.44;;;20.82;39.55
19761;BME280;10039;42.632;23.408;2023-05-01T12:50:39;95108.97;;;20.93;39.88
19761;BME280;10039;42.632;23.408;2023-05-01T12:53:05;95096.75;;;20.83;41.31
19761;BME280;10039;42.632;23.408;2023-05-01T12:55:46;95095.59;;;20.89;42.30
19761;BME280;10039;42.632;23.408;2023-05-01T12:58:13;95099.13;;;20.95;42.03
19761;BME280;10039;42.632;23.408;2023-05-01T13:00:50;95101.44;;;21.02;42.12
19761;BME280;10039;42.632;23.408;2023-05-01T13:03:24;95093.16;;;20.91;41.36
19761;BME280;10039;42.632;23.408;2023-05-01T13:06:00;95104.06;;;20.62;40.71
19761;BME280;10039;42.632;23.408;2023-05-01T13:08:31;95106.47;;;20.40;42.51
19761;BME280;10039;42.632;23.408;2023-05-01T13:11:02;95113.19;;;20.31;44.13
19761;BME280;10039;42.632;23.408;2023-05-01T13:13:34;95110.88;;;20.24;42.66
19761;BME280;10039;42.632;23.408;2023-05-01T13:16:14;95101.72;;;20.21;43.58
19761;BME280;10039;42.632;23.408;2023-05-01T13:18:44;95105.09;;;20.02;46.00
19761;BME280;10039;42.632;23.408;2023-05-01T13:21:12;95096.66;;;20.29;45.71
19761;BME280;10039;42.632;23.408;2023-05-01T13:23:40;95111.13;;;20.40;45.71
19761;BME280;10039;42.632;23.408;2023-05-01T13:26:07;95117.94;;;20.50;45.97
19761;BME280;10039;42.632;23.408;2023-05-01T13:28:43;95114.91;;;20.28;45.38
19761;BME280;10039;42.632;23.408;2023-05-01T13:31:11;95090.22;;;19.97;45.68
19761;BME280;10039;42.632;23.408;2023-05-01T13:33:38;95114.16;;;19.99;45.71
19761;BME280;10039;42.632;23.408;2023-05-01T13:36:05;95102.72;;;19.95;45.15